createdAt,value
2023-02-02T00:02:24.313Z,13.5
2023-02-02T00:17:34.143Z,13.1
2023-02-02T00:32:43.598Z,14.6
2023-02-02T00:47:52.893Z,15.2
2023-02-02T01:03:02.310Z,23.3
2023-02-02T01:18:11.632Z,13.4
2023-02-02T01:33:21.183Z,11.4
2023-02-02T01:48:30.717Z,21.4
2023-02-02T02:03:39.931Z,16.1
2023-02-02T02:18:51.116Z,16.5
2023-02-02T02:34:00.411Z,17.8
2023-02-02T02:49:09.622Z,17.6
2023-02-02T03:04:19.046Z,16.9
2023-02-02T03:19:28.564Z,17.8
2023-02-02T03:34:37.527Z,14.3
2023-02-02T03:49:46.625Z,18.1
2023-02-02T04:04:55.960Z,14.1
2023-02-02T04:20:04.516Z,19.4
2023-02-02T04:35:14.098Z,25
2023-02-02T04:50:27.637Z,17.4
2023-02-02T05:05:36.947Z,16.3
2023-02-02T05:20:45.765Z,22.4
2023-02-02T05:35:54.990Z,24.7
2023-02-02T05:51:04.604Z,29.4
2023-02-02T06:06:14.671Z,18.1
2023-02-02T06:21:24.131Z,22.2
2023-02-02T06:36:33.796Z,21.8
2023-02-02T06:51:43.305Z,21.3
2023-02-02T07:06:53.959Z,18.4
2023-02-02T07:22:03.507Z,19.8
2023-02-02T07:37:13.037Z,9.2
2023-02-02T07:52:23.102Z,21.9
2023-02-02T08:07:32.528Z,23.7
2023-02-02T08:22:42.037Z,22.6
2023-02-02T08:37:51.874Z,33.4
2023-02-02T08:53:01.638Z,11.1
2023-02-02T09:08:12.229Z,11.3
2023-02-02T09:23:21.707Z,6.5
2023-02-02T09:38:31.963Z,6.3
2023-02-02T09:53:56.426Z,9.8
2023-02-02T10:09:06.459Z,7.2
2023-02-02T10:24:15.656Z,13.8
2023-02-02T10:39:25.758Z,7.2
2023-02-02T10:54:59.793Z,10.6
2023-02-02T11:10:13.937Z,10.5
2023-02-02T11:25:23.422Z,15.6
2023-02-02T11:40:33.317Z,12.2
2023-02-02T11:55:43.047Z,12.4
2023-02-02T12:10:56.293Z,16.6
2023-02-02T12:26:05.684Z,14.2
2023-02-02T12:41:15.161Z,14.9
2023-02-02T12:56:24.539Z,6.5
2023-02-02T13:11:34.359Z,14.4
2023-02-02T13:26:44.240Z,19.8
2023-02-02T13:41:56.329Z,16.6
2023-02-02T13:57:06.218Z,12.9
2023-02-02T14:12:15.042Z,19.5
2023-02-02T14:27:25.090Z,20.3
2023-02-02T14:42:34.640Z,10.3
2023-02-02T14:57:45.902Z,10.8
2023-02-02T15:12:55.756Z,14.4
2023-02-02T15:28:04.861Z,18.9
2023-02-02T15:43:59.023Z,10.4
2023-02-02T15:59:09.489Z,13.7
2023-02-02T16:14:19.152Z,9.3
2023-02-02T16:29:28.430Z,16.9
2023-02-02T16:44:37.946Z,15
2023-02-02T16:59:47.877Z,15.3
2023-02-02T17:14:57.280Z,19.7
2023-02-02T17:30:06.318Z,13.7
2023-02-02T17:45:16.154Z,14.4
2023-02-02T18:00:27.324Z,7.6
2023-02-02T18:15:40.937Z,12.2
2023-02-02T18:30:51.247Z,15
2023-02-02T18:46:01.753Z,9.8
2023-02-02T19:01:11.306Z,12.3
2023-02-02T19:16:20.778Z,20.2
2023-02-02T19:31:31.199Z,8.8
2023-02-02T19:46:40.669Z,9
2023-02-02T20:01:51.218Z,10.6
2023-02-02T20:16:59.845Z,5.3
2023-02-02T20:32:09.521Z,7.8
2023-02-02T20:47:19.122Z,10.6
2023-02-02T21:02:29.554Z,5.7
2023-02-02T21:17:39.683Z,7.2
2023-02-02T21:32:49.519Z,5.4
2023-02-02T21:47:58.656Z,8
2023-02-02T22:03:08.216Z,12
2023-02-02T22:18:17.987Z,25.6
2023-02-02T22:33:28.223Z,26.3
2023-02-02T22:48:37.928Z,33.4
2023-02-02T23:03:48.219Z,30.1
2023-02-02T23:18:58.744Z,35.1
2023-02-02T23:34:08.809Z,43.6
2023-02-02T23:49:18.837Z,41.6
